sensor_id;sensor_type;location;lat;lon;timestamp;temperature;humidity
75683;HTU21D;64295;44.772;39.872;2023-02-26T00:01:13;6.52;52.16
75683;HTU21D;64295;44.772;39.872;2023-02-26T00:03:39;6.52;52.16
75683;HTU21D;64295;44.772;39.872;2023-02-26T00:06:06;6.51;52.22
75683;HTU21D;64295;44.772;39.872;2023-02-26T00:08:32;6.53;52.27
75683;HTU21D;64295;44.772;39.872;2023-02-26T00:10:58;6.49;52.36
75683;HTU21D;64295;44.772;39.872;2023-02-26T00:13:29;6.44;52.49
75683;HTU21D;64295;44.772;39.872;2023-02-26T00:15:59;6.42;52.59
75683;HTU21D;64295;44.772;39.872;2023-02-26T00:18:26;6.34;52.70
75683;HTU21D;64295;44.772;39.872;2023-02-26T00:20:53;6.27;52.85
75683;HTU21D;64295;44.772;39.872;2023-02-26T00:23:19;6.26;52.93
75683;HTU21D;64295;44.772;39.872;2023-02-26T00:25:47;6.23;52.99
75683;HTU21D;64295;44.772;39.872;2023-02-26T00:28:13;6.20;53.07
75683;HTU21D;64295;44.772;39.872;2023-02-26T00:30:39;6.17;53.20
75683;HTU21D;64295;44.772;39.872;2023-02-26T00:33:05;6.12;53.28
75683;HTU21D;64295;44.772;39.872;2023-02-26T00:35:34;6.02;53.44
75683;HTU21D;64295;44.772;39.872;2023-02-26T00:38:09;5.95;53.68
75683;HTU21D;64295;44.772;39.872;2023-02-26T00:43:06;5.84;53.49
75683;HTU21D;64295;44.772;39.872;2023-02-26T00:45:33;5.82;53.59
75683;HTU21D;64295;44.772;39.872;2023-02-26T00:48:06;5.78;53.68
75683;HTU21D;64295;44.772;39.872;2023-02-26T00:50:45;5.74;53.87
75683;HTU21D;64295;44.772;39.872;2023-02-26T00:53:26;5.78;54.01
75683;HTU21D;64295;44.772;39.872;2023-02-26T00:55:53;5.85;53.77
75683;HTU21D;64295;44.772;39.872;2023-02-26T00:58:20;5.93;53.78
75683;HTU21D;64295;44.772;39.872;2023-02-26T01:00:48;6.09;53.71
75683;HTU21D;64295;44.772;39.872;2023-02-26T01:03:14;6.27;53.43
75683;HTU21D;64295;44.772;39.872;2023-02-26T01:05:40;6.57;53.05
75683;HTU21D;64295;44.772;39.872;2023-02-26T01:08:28;6.99;52.64
75683;HTU21D;64295;44.772;39.872;2023-02-26T01:10:55;7.43;51.82
75683;HTU21D;64295;44.772;39.872;2023-02-26T01:13:21;7.90;51.12
75683;HTU21D;64295;44.772;39.872;2023-02-26T01:15:50;8.37;50.39
75683;HTU21D;64295;44.772;39.872;2023-02-26T01:18:37;8.81;49.73
75683;HTU21D;64295;44.772;39.872;2023-02-26T01:21:09;9.29;48.98
75683;HTU21D;64295;44.772;39.872;2023-02-26T01:23:40;9.71;48.30
75683;HTU21D;64295;44.772;39.872;2023-02-26T01:26:27;10.07;47.70
75683;HTU21D;64295;44.772;39.872;2023-02-26T01:28:54;10.37;47.02
75683;HTU21D;64295;44.772;39.872;2023-02-26T01:31:47;10.65;46.51
75683;HTU21D;64295;44.772;39.872;2023-02-26T01:34:24;10.86;46.23
75683;HTU21D;64295;44.772;39.872;2023-02-26T01:37:06;11.09;45.92
75683;HTU21D;64295;44.772;39.872;2023-02-26T01:42:52;11.53;44.74
75683;HTU21D;64295;44.772;39.872;2023-02-26T01:48:17;11.90;44.09
75683;HTU21D;64295;44.772;39.872;2023-02-26T01:50:46;12.05;43.88
75683;HTU21D;64295;44.772;39.872;2023-02-26T01:55:48;12.30;43.11
75683;HTU21D;64295;44.772;39.872;2023-02-26T01:58:16;12.44;42.55
75683;HTU21D;64295;44.772;39.872;2023-02-26T02:00:43;12.45;42.40
75683;HTU21D;64295;44.772;39.872;2023-02-26T02:03:09;12.48;42.38
75683;HTU21D;64295;44.772;39.872;2023-02-26T02:05:42;12.60;41.77
75683;HTU21D;64295;44.772;39.872;2023-02-26T02:08:11;12.71;41.65
75683;HTU21D;64295;44.772;39.872;2023-02-26T02:10:50;12.78;41.34
75683;HTU21D;64295;44.772;39.872;2023-02-26T02:32:59;12.89;39.95
75683;HTU21D;64295;44.772;39.872;2023-02-26T02:38:37;12.84;39.95
75683;HTU21D;64295;44.772;39.872;2023-02-26T02:41:16;12.84;39.92
75683;HTU21D;64295;44.772;39.872;2023-02-26T02:43:47;12.78;40.17
75683;HTU21D;64295;44.772;39.872;2023-02-26T02:46:22;12.74;39.96
75683;HTU21D;64295;44.772;39.872;2023-02-26T02:48:59;12.72;39.87
75683;HTU21D;64295;44.772;39.872;2023-02-26T02:51:38;12.73;39.64
75683;HTU21D;64295;44.772;39.872;2023-02-26T02:56:52;12.90;39.33
75683;HTU21D;64295;44.772;39.872;2023-02-26T02:59:34;12.95;39.18
75683;HTU21D;64295;44.772;39.872;2023-02-26T03:04:46;12.91;39.27
75683;HTU21D;64295;44.772;39.872;2023-02-26T03:07:13;12.90;39.20
75683;HTU21D;64295;44.772;39.872;2023-02-26T03:09:40;12.95;38.81
75683;HTU21D;64295;44.772;39.872;2023-02-26T03:12:06;12.99;38.88
75683;HTU21D;64295;44.772;39.872;2023-02-26T03:14:33;13.04;38.73
75683;HTU21D;64295;44.772;39.872;2023-02-26T03:17:30;13.00;38.71
75683;HTU21D;64295;44.772;39.872;2023-02-26T03:20:24;13.01;38.66
75683;HTU21D;64295;44.772;39.872;2023-02-26T03:25:52;13.00;38.69
75683;HTU21D;64295;44.772;39.872;2023-02-26T03:28:22;13.01;38.75
75683;HTU21D;64295;44.772;39.872;2023-02-26T03:30:58;13.08;38.35
75683;HTU21D;64295;44.772;39.872;2023-02-26T03:33:53;13.08;38.24
75683;HTU21D;64295;44.772;39.872;2023-02-26T03:36:25;13.08;38.40
75683;HTU21D;64295;44.772;39.872;2023-02-26T03:39:24;13.08;38.37
75683;HTU21D;64295;44.772;39.872;2023-02-26T03:42:32;13.08;38.43
75683;HTU21D;64295;44.772;39.872;2023-02-26T03:48:04;13.02;38.49
75683;HTU21D;64295;44.772;39.872;2023-02-26T03:53:38;13.16;37.94
75683;HTU21D;64295;44.772;39.872;2023-02-26T03:56:25;13.19;38.03
75683;HTU21D;64295;44.772;39.872;2023-02-26T03:59:08;13.32;37.79
75683;HTU21D;64295;44.772;39.872;2023-02-26T04:02:10;13.33;37.53
75683;HTU21D;64295;44.772;39.872;2023-02-26T04:04:51;13.36;37.45
75683;HTU21D;64295;44.772;39.872;2023-02-26T04:07:21;13.38;37.40
75683;HTU21D;64295;44.772;39.872;2023-02-26T04:09:49;13.46;36.95
75683;HTU21D;64295;44.772;39.872;2023-02-26T04:12:22;13.45;37.05
75683;HTU21D;64295;44.772;39.872;2023-02-26T04:14:49;13.40;37.04
75683;HTU21D;64295;44.772;39.872;2023-02-26T04:17:15;13.41;37.01
75683;HTU21D;64295;44.772;39.872;2023-02-26T04:19:41;13.40;37.14
75683;HTU21D;64295;44.772;39.872;2023-02-26T04:22:08;13.39;37.05
75683;HTU21D;64295;44.772;39.872;2023-02-26T04:24:35;13.41;37.08
75683;HTU21D;64295;44.772;39.872;2023-02-26T04:27:01;13.45;36.97
75683;HTU21D;64295;44.772;39.872;2023-02-26T04:29:29;13.48;37.01
75683;HTU21D;64295;44.772;39.872;2023-02-26T04:31:56;13.55;36.73
75683;HTU21D;64295;44.772;39.872;2023-02-26T04:34:22;13.67;36.73
75683;HTU21D;64295;44.772;39.872;2023-02-26T04:36:48;13.66;36.69
75683;HTU21D;64295;44.772;39.872;2023-02-26T04:39:20;13.63;36.75
75683;HTU21D;64295;44.772;39.872;2023-02-26T04:41:46;13.60;36.88
75683;HTU21D;64295;44.772;39.872;2023-02-26T04:44:13;13.54;36.92
75683;HTU21D;64295;44.772;39.872;2023-02-26T04:46:40;13.52;36.98
75683;HTU21D;64295;44.772;39.872;2023-02-26T04:49:06;13.59;36.69
75683;HTU21D;64295;44.772;39.872;2023-02-26T04:51:32;13.63;36.51
75683;HTU21D;64295;44.772;39.872;2023-02-26T04:53:58;13.73;36.14
75683;HTU21D;64295;44.772;39.872;2023-02-26T04:56:24;13.78;36.22
75683;HTU21D;64295;44.772;39.872;2023-02-26T04:58:50;13.77;36.20
75683;HTU21D;64295;44.772;39.872;2023-02-26T05:01:22;13.77;36.27
75683;HTU21D;64295;44.772;39.872;2023-02-26T05:03:48;13.79;36.17
75683;HTU21D;64295;44.772;39.872;2023-02-26T05:06:14;13.82;35.92
75683;HTU21D;64295;44.772;39.872;2023-02-26T05:08:40;13.85;35.95
75683;HTU21D;64295;44.772;39.872;2023-02-26T05:11:10;13.84;36.10
75683;HTU21D;64295;44.772;39.872;2023-02-26T05:13:37;13.84;36.02
75683;HTU21D;64295;44.772;39.872;2023-02-26T05:16:03;13.91;35.93
75683;HTU21D;64295;44.772;39.872;2023-02-26T05:18:29;13.97;35.99
75683;HTU21D;64295;44.772;39.872;2023-02-26T05:20:57;14.01;35.95
75683;HTU21D;64295;44.772;39.872;2023-02-26T05:23:23;14.06;35.95
75683;HTU21D;64295;44.772;39.872;2023-02-26T05:25:49;14.13;35.89
75683;HTU21D;64295;44.772;39.872;2023-02-26T05:28:16;14.18;35.95
75683;HTU21D;64295;44.772;39.872;2023-02-26T05:30:42;14.26;35.89
75683;HTU21D;64295;44.772;39.872;2023-02-26T05:33:08;14.33;35.70
75683;HTU21D;64295;44.772;39.872;2023-02-26T05:35:34;14.48;35.36
75683;HTU21D;64295;44.772;39.872;2023-02-26T05:38:00;14.63;35.15
75683;HTU21D;64295;44.772;39.872;2023-02-26T05:40:26;14.72;35.01
75683;HTU21D;64295;44.772;39.872;2023-02-26T05:42:52;14.77;35.05
75683;HTU21D;64295;44.772;39.872;2023-02-26T05:45:18;14.83;34.89
75683;HTU21D;64295;44.772;39.872;2023-02-26T05:47:44;14.92;35.10
75683;HTU21D;64295;44.772;39.872;2023-02-26T05:50:10;14.98;35.02
75683;HTU21D;64295;44.772;39.872;2023-02-26T05:52:47;15.02;34.83
75683;HTU21D;64295;44.772;39.872;2023-02-26T05:55:13;15.10;34.44
75683;HTU21D;64295;44.772;39.872;2023-02-26T05:57:38;15.16;34.57
75683;HTU21D;64295;44.772;39.872;2023-02-26T06:00:06;15.25;34.50
75683;HTU21D;64295;44.772;39.872;2023-02-26T06:02:38;15.30;34.73
75683;HTU21D;64295;44.772;39.872;2023-02-26T06:05:04;15.33;34.50
75683;HTU21D;64295;44.772;39.872;2023-02-26T06:07:30;15.42;34.42
75683;HTU21D;64295;44.772;39.872;2023-02-26T06:09:56;15.54;33.84
75683;HTU21D;64295;44.772;39.872;2023-02-26T06:12:22;15.63;33.75
75683;HTU21D;64295;44.772;39.872;2023-02-26T06:14:48;15.69;33.71
75683;HTU21D;64295;44.772;39.872;2023-02-26T06:17:16;15.81;33.24
75683;HTU21D;64295;44.772;39.872;2023-02-26T06:19:42;15.88;33.38
75683;HTU21D;64295;44.772;39.872;2023-02-26T06:22:09;15.97;33.41
75683;HTU21D;64295;44.772;39.872;2023-02-26T06:24:35;16.01;33.18
75683;HTU21D;64295;44.772;39.872;2023-02-26T06:27:01;16.13;32.89
75683;HTU21D;64295;44.772;39.872;2023-02-26T06:29:27;16.20;33.05
75683;HTU21D;64295;44.772;39.872;2023-02-26T06:31:55;16.34;32.70
75683;HTU21D;64295;44.772;39.872;2023-02-26T06:34:21;16.41;32.71
75683;HTU21D;64295;44.772;39.872;2023-02-26T06:36:47;16.49;32.41
75683;HTU21D;64295;44.772;39.872;2023-02-26T06:39:13;16.61;31.87
75683;HTU21D;64295;44.772;39.872;2023-02-26T06:41:39;16.72;31.73
75683;HTU21D;64295;44.772;39.872;2023-02-26T06:44:05;16.79;31.45
75683;HTU21D;64295;44.772;39.872;2023-02-26T06:46:31;16.88;31.17
75683;HTU21D;64295;44.772;39.872;2023-02-26T06:48:57;16.99;30.73
75683;HTU21D;64295;44.772;39.872;2023-02-26T06:51:24;17.05;31.02
75683;HTU21D;64295;44.772;39.872;2023-02-26T06:53:50;17.09;31.28
75683;HTU21D;64295;44.772;39.872;2023-02-26T06:56:16;17.14;31.12
75683;HTU21D;64295;44.772;39.872;2023-02-26T06:58:42;17.18;31.03
75683;HTU21D;64295;44.772;39.872;2023-02-26T07:01:08;17.20;30.96
75683;HTU21D;64295;44.772;39.872;2023-02-26T07:03:34;17.20;31.10
75683;HTU21D;64295;44.772;39.872;2023-02-26T07:06:00;17.24;30.22
75683;HTU21D;64295;44.772;39.872;2023-02-26T07:08:26;17.28;30.35
75683;HTU21D;64295;44.772;39.872;2023-02-26T07:10:52;17.31;30.13
75683;HTU21D;64295;44.772;39.872;2023-02-26T07:13:18;17.30;30.40
75683;HTU21D;64295;44.772;39.872;2023-02-26T07:15:44;17.30;30.27
75683;HTU21D;64295;44.772;39.872;2023-02-26T07:18:10;17.31;30.47
75683;HTU21D;64295;44.772;39.872;2023-02-26T07:20:36;17.33;30.53
75683;HTU21D;64295;44.772;39.872;2023-02-26T07:23:01;17.34;30.28
75683;HTU21D;64295;44.772;39.872;2023-02-26T07:25:27;17.36;30.43
75683;HTU21D;64295;44.772;39.872;2023-02-26T07:27:53;17.38;29.93
75683;HTU21D;64295;44.772;39.872;2023-02-26T07:30:19;17.39;30.17
75683;HTU21D;64295;44.772;39.872;2023-02-26T07:32:45;17.39;30.22
75683;HTU21D;64295;44.772;39.872;2023-02-26T07:35:13;17.41;29.93
75683;HTU21D;64295;44.772;39.872;2023-02-26T07:37:39;17.46;30.05
75683;HTU21D;64295;44.772;39.872;2023-02-26T07:40:06;17.47;30.13
75683;HTU21D;64295;44.772;39.872;2023-02-26T07:42:32;17.49;30.02
75683;HTU21D;64295;44.772;39.872;2023-02-26T07:44:57;17.52;29.94
75683;HTU21D;64295;44.772;39.872;2023-02-26T07:47:24;17.52;30.06
75683;HTU21D;64295;44.772;39.872;2023-02-26T07:49:50;17.55;29.81
75683;HTU21D;64295;44.772;39.872;2023-02-26T07:52:16;17.63;31.07
75683;HTU21D;64295;44.772;39.872;2023-02-26T07:54:42;17.70;30.01
75683;HTU21D;64295;44.772;39.872;2023-02-26T07:57:08;17.70;29.85
75683;HTU21D;64295;44.772;39.872;2023-02-26T07:59:34;17.69;29.61
75683;HTU21D;64295;44.772;39.872;2023-02-26T08:02:00;17.68;29.69
75683;HTU21D;64295;44.772;39.872;2023-02-26T08:04:26;17.73;29.58
75683;HTU21D;64295;44.772;39.872;2023-02-26T08:06:52;17.73;29.55
75683;HTU21D;64295;44.772;39.872;2023-02-26T08:09:21;17.76;28.87
75683;HTU21D;64295;44.772;39.872;2023-02-26T08:11:47;17.79;28.68
75683;HTU21D;64295;44.772;39.872;2023-02-26T08:14:13;17.83;28.29
75683;HTU21D;64295;44.772;39.872;2023-02-26T08:16:39;17.85;28.48
75683;HTU21D;64295;44.772;39.872;2023-02-26T08:19:05;17.84;28.42
75683;HTU21D;64295;44.772;39.872;2023-02-26T08:21:31;17.90;28.26
75683;HTU21D;64295;44.772;39.872;2023-02-26T08:23:57;17.92;27.97
75683;HTU21D;64295;44.772;39.872;2023-02-26T08:26:23;17.94;27.97
75683;HTU21D;64295;44.772;39.872;2023-02-26T08:28:49;17.97;28.42
75683;HTU21D;64295;44.772;39.872;2023-02-26T08:31:15;18.02;28.22
75683;HTU21D;64295;44.772;39.872;2023-02-26T08:33:41;18.04;28.36
75683;HTU21D;64295;44.772;39.872;2023-02-26T08:36:08;18.09;27.97
75683;HTU21D;64295;44.772;39.872;2023-02-26T08:38:34;18.17;27.98
75683;HTU21D;64295;44.772;39.872;2023-02-26T08:41:00;18.23;27.98
75683;HTU21D;64295;44.772;39.872;2023-02-26T08:43:28;18.29;27.91
75683;HTU21D;64295;44.772;39.872;2023-02-26T08:45:56;18.30;27.86
75683;HTU21D;64295;44.772;39.872;2023-02-26T08:48:22;18.32;27.66
75683;HTU21D;64295;44.772;39.872;2023-02-26T08:50:48;18.39;26.38
75683;HTU21D;64295;44.772;39.872;2023-02-26T08:53:14;18.39;26.75
75683;HTU21D;64295;44.772;39.872;2023-02-26T08:55:41;18.38;26.73
75683;HTU21D;64295;44.772;39.872;2023-02-26T08:58:09;18.40;26.45
75683;HTU21D;64295;44.772;39.872;2023-02-26T09:00:35;18.39;26.78
75683;HTU21D;64295;44.772;39.872;2023-02-26T09:03:01;18.39;26.86
75683;HTU21D;64295;44.772;39.872;2023-02-26T09:05:27;18.39;26.78
75683;HTU21D;64295;44.772;39.872;2023-02-26T09:07:53;18.40;26.98
75683;HTU21D;64295;44.772;39.872;2023-02-26T09:10:19;18.38;26.87
75683;HTU21D;64295;44.772;39.872;2023-02-26T09:12:45;18.40;26.90
75683;HTU21D;64295;44.772;39.872;2023-02-26T09:15:12;18.37;27.07
75683;HTU21D;64295;44.772;39.872;2023-02-26T09:17:39;18.38;26.68
75683;HTU21D;64295;44.772;39.872;2023-02-26T09:20:06;18.38;26.83
75683;HTU21D;64295;44.772;39.872;2023-02-26T09:22:34;18.36;26.60
75683;HTU21D;64295;44.772;39.872;2023-02-26T09:25:02;18.38;26.71
75683;HTU21D;64295;44.772;39.872;2023-02-26T09:27:28;18.36;26.91
75683;HTU21D;64295;44.772;39.872;2023-02-26T09:29:54;18.35;27.09
75683;HTU21D;64295;44.772;39.872;2023-02-26T09:32:20;18.40;26.59
75683;HTU21D;64295;44.772;39.872;2023-02-26T09:34:45;18.40;27.00
75683;HTU21D;64295;44.772;39.872;2023-02-26T09:37:11;18.42;26.81
75683;HTU21D;64295;44.772;39.872;2023-02-26T09:39:37;18.47;26.46
75683;HTU21D;64295;44.772;39.872;2023-02-26T09:45:35;18.53;25.88
75683;HTU21D;64295;44.772;39.872;2023-02-26T09:48:05;18.53;25.94
75683;HTU21D;64295;44.772;39.872;2023-02-26T09:53:18;18.56;25.85
75683;HTU21D;64295;44.772;39.872;2023-02-26T09:55:47;18.58;25.83
75683;HTU21D;64295;44.772;39.872;2023-02-26T09:58:21;18.61;25.67
75683;HTU21D;64295;44.772;39.872;2023-02-26T10:01:04;18.59;26.01
75683;HTU21D;64295;44.772;39.872;2023-02-26T10:03:58;18.63;25.71
75683;HTU21D;64295;44.772;39.872;2023-02-26T10:07:41;18.66;25.82
75683;HTU21D;64295;44.772;39.872;2023-02-26T10:10:00;18.66;25.79
75683;HTU21D;64295;44.772;39.872;2023-02-26T10:12:29;18.69;25.53
75683;HTU21D;64295;44.772;39.872;2023-02-26T10:36:47;18.82;25.33
75683;HTU21D;64295;44.772;39.872;2023-02-26T10:39:26;18.82;25.37
75683;HTU21D;64295;44.772;39.872;2023-02-26T10:41:55;18.82;25.68
75683;HTU21D;64295;44.772;39.872;2023-02-26T10:48:07;18.84;25.72
75683;HTU21D;64295;44.772;39.872;2023-02-26T10:50:47;18.85;25.92
75683;HTU21D;64295;44.772;39.872;2023-02-26T10:53:13;18.89;25.18
75683;HTU21D;64295;44.772;39.872;2023-02-26T10:56:13;18.92;24.56
75683;HTU21D;64295;44.772;39.872;2023-02-26T10:58:40;18.94;25.36
75683;HTU21D;64295;44.772;39.872;2023-02-26T11:01:19;18.98;24.09
75683;HTU21D;64295;44.772;39.872;2023-02-26T11:03:54;18.98;24.94
75683;HTU21D;64295;44.772;39.872;2023-02-26T11:06:26;18.98;25.28
75683;HTU21D;64295;44.772;39.872;2023-02-26T11:08:55;18.99;25.42
75683;HTU21D;64295;44.772;39.872;2023-02-26T11:11:46;19.01;25.37
75683;HTU21D;64295;44.772;39.872;2023-02-26T11:14:13;19.02;25.36
75683;HTU21D;64295;44.772;39.872;2023-02-26T11:16:55;19.05;25.07
75683;HTU21D;64295;44.772;39.872;2023-02-26T11:19:45;19.01;25.23
75683;HTU21D;64295;44.772;39.872;2023-02-26T11:22:15;19.03;25.34
75683;HTU21D;64295;44.772;39.872;2023-02-26T11:24:45;19.06;24.98
75683;HTU21D;64295;44.772;39.872;2023-02-26T11:27:15;19.10;25.14
75683;HTU21D;64295;44.772;39.872;2023-02-26T11:29:48;19.14;24.69
75683;HTU21D;64295;44.772;39.872;2023-02-26T11:32:28;19.16;24.56
75683;HTU21D;64295;44.772;39.872;2023-02-26T11:34:54;19.15;25.08
75683;HTU21D;64295;44.772;39.872;2023-02-26T11:37:23;19.18;25.17
75683;HTU21D;64295;44.772;39.872;2023-02-26T11:40:16;19.21;24.43
75683;HTU21D;64295;44.772;39.872;2023-02-26T11:42:54;19.21;23.80
75683;HTU21D;64295;44.772;39.872;2023-02-26T11:45:21;19.20;24.11
75683;HTU21D;64295;44.772;39.872;2023-02-26T11:47:57;19.13;24.40
75683;HTU21D;64295;44.772;39.872;2023-02-26T11:50:23;19.13;24.33
75683;HTU21D;64295;44.772;39.872;2023-02-26T11:52:56;19.09;24.81
75683;HTU21D;64295;44.772;39.872;2023-02-26T11:55:36;19.08;24.68
75683;HTU21D;64295;44.772;39.872;2023-02-26T11:58:16;19.07;24.07
75683;HTU21D;64295;44.772;39.872;2023-02-26T12:00:42;19.02;24.46
75683;HTU21D;64295;44.772;39.872;2023-02-26T12:03:16;19.01;24.13
75683;HTU21D;64295;44.772;39.872;2023-02-26T12:05:43;18.99;24.12
75683;HTU21D;64295;44.772;39.872;2023-02-26T12:16:37;18.89;24.58
75683;HTU21D;64295;44.772;39.872;2023-02-26T12:19:18;18.87;24.47
75683;HTU21D;64295;44.772;39.872;2023-02-26T12:30:44;18.76;24.51
75683;HTU21D;64295;44.772;39.872;2023-02-26T12:39:35;18.70;24.65
75683;HTU21D;64295;44.772;39.872;2023-02-26T12:48:16;18.65;24.46
75683;HTU21D;64295;44.772;39.872;2023-02-26T13:05:16;18.47;25.01
75683;HTU21D;64295;44.772;39.872;2023-02-26T13:07:41;18.49;24.39
75683;HTU21D;64295;44.772;39.872;2023-02-26T13:21:08;18.34;25.07
75683;HTU21D;64295;44.772;39.872;2023-02-26T13:26:20;18.28;25.11
75683;HTU21D;64295;44.772;39.872;2023-02-26T13:31:46;18.21;25.38
75683;HTU21D;64295;44.772;39.872;2023-02-26T13:37:02;18.11;25.65
75683;HTU21D;64295;44.772;39.872;2023-02-26T13:39:35;18.06;25.80
75683;HTU21D;64295;44.772;39.872;2023-02-26T13:47:35;17.95;26.07
75683;HTU21D;64295;44.772;39.872;2023-02-26T13:53:00;17.84;26.26
75683;HTU21D;64295;44.772;39.872;2023-02-26T14:03:45;17.72;26.43
75683;HTU21D;64295;44.772;39.872;2023-02-26T14:09:43;17.66;26.36
75683;HTU21D;64295;44.772;39.872;2023-02-26T14:17:40;17.59;26.41
75683;HTU21D;64295;44.772;39.872;2023-02-26T14:20:20;17.51;26.73
75683;HTU21D;64295;44.772;39.872;2023-02-26T14:25:50;17.43;26.77
75683;HTU21D;64295;44.772;39.872;2023-02-26T14:33:31;17.31;27.05
75683;HTU21D;64295;44.772;39.872;2023-02-26T14:36:04;17.28;26.88
75683;HTU21D;64295;44.772;39.872;2023-02-26T14:38:33;17.22;27.28
75683;HTU21D;64295;44.772;39.872;2023-02-26T14:41:05;17.15;27.30
75683;HTU21D;64295;44.772;39.872;2023-02-26T14:43:42;17.11;27.23
75683;HTU21D;64295;44.772;39.872;2023-02-26T14:46:15;17.06;27.46
75683;HTU21D;64295;44.772;39.872;2023-02-26T14:48:42;16.99;27.65
75683;HTU21D;64295;44.772;39.872;2023-02-26T15:05:36;16.71;28.12
75683;HTU21D;64295;44.772;39.872;2023-02-26T15:08:35;16.67;28.20
75683;HTU21D;64295;44.772;39.872;2023-02-26T15:16:50;16.51;28.60
75683;HTU21D;64295;44.772;39.872;2023-02-26T15:20:35;16.47;28.68
75683;HTU21D;64295;44.772;39.872;2023-02-26T15:25:32;16.36;28.93
75683;HTU21D;64295;44.772;39.872;2023-02-26T15:28:00;16.30;28.97
75683;HTU21D;64295;44.772;39.872;2023-02-26T15:30:29;16.27;29.84
75683;HTU21D;64295;44.772;39.872;2023-02-26T15:33:03;16.22;29.53
75683;HTU21D;64295;44.772;39.872;2023-02-26T15:35:30;16.19;29.44
75683;HTU21D;64295;44.772;39.872;2023-02-26T15:38:01;16.13;29.54
75683;HTU21D;64295;44.772;39.872;2023-02-26T15:40:30;16.07;29.60
75683;HTU21D;64295;44.772;39.872;2023-02-26T15:42:58;16.03;29.74
75683;HTU21D;64295;44.772;39.872;2023-02-26T15:45:39;16.04;29.69
75683;HTU21D;64295;44.772;39.872;2023-02-26T15:48:14;16.02;29.84
75683;HTU21D;64295;44.772;39.872;2023-02-26T15:50:51;16.02;29.90
75683;HTU21D;64295;44.772;39.872;2023-02-26T15:53:26;16.01;29.92
75683;HTU21D;64295;44.772;39.872;2023-02-26T15:55:55;16.00;29.96
75683;HTU21D;64295;44.772;39.872;2023-02-26T16:01:04;15.93;29.95
75683;HTU21D;64295;44.772;39.872;2023-02-26T16:03:33;15.92;30.00
75683;HTU21D;64295;44.772;39.872;2023-02-26T16:06:00;15.89;30.06
75683;HTU21D;64295;44.772;39.872;2023-02-26T16:08:26;15.87;30.04
75683;HTU21D;64295;44.772;39.872;2023-02-26T16:10:54;15.86;30.09
75683;HTU21D;64295;44.772;39.872;2023-02-26T16:13:28;15.85;30.00
75683;HTU21D;64295;44.772;39.872;2023-02-26T16:16:04;15.85;30.03
75683;HTU21D;64295;44.772;39.872;2023-02-26T16:18:32;15.84;29.99
75683;HTU21D;64295;44.772;39.872;2023-02-26T16:21:01;15.85;30.02
75683;HTU21D;64295;44.772;39.872;2023-02-26T16:23:43;15.83;30.05
75683;HTU21D;64295;44.772;39.872;2023-02-26T16:26:16;15.81;30.12
75683;HTU21D;64295;44.772;39.872;2023-02-26T16:28:47;15.78;30.19
75683;HTU21D;64295;44.772;39.872;2023-02-26T16:31:21;15.77;30.35
75683;HTU21D;64295;44.772;39.872;2023-02-26T16:33:59;15.74;30.30
75683;HTU21D;64295;44.772;39.872;2023-02-26T16:36:40;15.70;30.67
75683;HTU21D;64295;44.772;39.872;2023-02-26T16:41:34;15.61;30.60
75683;HTU21D;64295;44.772;39.872;2023-02-26T16:46:57;15.56;30.62
75683;HTU21D;64295;44.772;39.872;2023-02-26T16:49:28;15.58;30.54
75683;HTU21D;64295;44.772;39.872;2023-02-26T16:51:56;15.58;30.58
75683;HTU21D;64295;44.772;39.872;2023-02-26T16:54:26;15.60;30.51
75683;HTU21D;64295;44.772;39.872;2023-02-26T16:57:05;15.62;30.50
75683;HTU21D;64295;44.772;39.872;2023-02-26T16:59:35;15.65;30.42
75683;HTU21D;64295;44.772;39.872;2023-02-26T17:02:12;15.67;30.40
75683;HTU21D;64295;44.772;39.872;2023-02-26T17:04:39;15.63;30.57
75683;HTU21D;64295;44.772;39.872;2023-02-26T17:09:50;15.63;30.48
75683;HTU21D;64295;44.772;39.872;2023-02-26T17:12:21;15.62;30.51
75683;HTU21D;64295;44.772;39.872;2023-02-26T17:14:55;15.61;30.42
75683;HTU21D;64295;44.772;39.872;2023-02-26T17:17:25;15.61;30.46
75683;HTU21D;64295;44.772;39.872;2023-02-26T17:19:51;15.61;30.54
75683;HTU21D;64295;44.772;39.872;2023-02-26T17:22:26;15.60;30.57
75683;HTU21D;64295;44.772;39.872;2023-02-26T17:24:53;15.59;30.58
75683;HTU21D;64295;44.772;39.872;2023-02-26T17:27:28;15.58;30.62
75683;HTU21D;64295;44.772;39.872;2023-02-26T17:29:58;15.57;30.66
75683;HTU21D;64295;44.772;39.872;2023-02-26T17:32:27;15.57;30.56
75683;HTU21D;64295;44.772;39.872;2023-02-26T17:34:54;15.56;30.58
75683;HTU21D;64295;44.772;39.872;2023-02-26T17:37:30;15.56;30.61
75683;HTU21D;64295;44.772;39.872;2023-02-26T17:39:58;15.56;30.68
75683;HTU21D;64295;44.772;39.872;2023-02-26T17:42:25;15.56;30.57
75683;HTU21D;64295;44.772;39.872;2023-02-26T17:44:51;15.56;30.48
75683;HTU21D;64295;44.772;39.872;2023-02-26T17:47:22;15.57;30.31
75683;HTU21D;64295;44.772;39.872;2023-02-26T17:49:48;15.60;30.29
75683;HTU21D;64295;44.772;39.872;2023-02-26T17:52:15;15.63;30.19
75683;HTU21D;64295;44.772;39.872;2023-02-26T17:54:43;15.66;30.08
75683;HTU21D;64295;44.772;39.872;2023-02-26T17:57:19;15.63;30.16
75683;HTU21D;64295;44.772;39.872;2023-02-26T17:59:47;15.62;30.25
75683;HTU21D;64295;44.772;39.872;2023-02-26T18:02:16;15.60;30.20
75683;HTU21D;64295;44.772;39.872;2023-02-26T18:04:43;15.60;30.23
75683;HTU21D;64295;44.772;39.872;2023-02-26T18:07:14;15.59;30.19
75683;HTU21D;64295;44.772;39.872;2023-02-26T18:09:45;15.58;30.23
75683;HTU21D;64295;44.772;39.872;2023-02-26T18:12:17;15.54;30.25
75683;HTU21D;64295;44.772;39.872;2023-02-26T18:14:43;15.49;30.35
75683;HTU21D;64295;44.772;39.872;2023-02-26T18:17:14;15.47;30.31
75683;HTU21D;64295;44.772;39.872;2023-02-26T18:19:43;15.44;30.50
75683;HTU21D;64295;44.772;39.872;2023-02-26T18:22:18;15.40;30.54
75683;HTU21D;64295;44.772;39.872;2023-02-26T18:24:45;15.36;30.67
75683;HTU21D;64295;44.772;39.872;2023-02-26T18:27:15;15.31;30.71
75683;HTU21D;64295;44.772;39.872;2023-02-26T18:29:43;15.28;30.87
75683;HTU21D;64295;44.772;39.872;2023-02-26T18:32:17;15.25;30.93
75683;HTU21D;64295;44.772;39.872;2023-02-26T18:34:43;15.22;31.08
75683;HTU21D;64295;44.772;39.872;2023-02-26T18:37:14;15.19;31.12
75683;HTU21D;64295;44.772;39.872;2023-02-26T18:39:41;15.17;31.27
75683;HTU21D;64295;44.772;39.872;2023-02-26T18:42:23;15.12;31.58
75683;HTU21D;64295;44.772;39.872;2023-02-26T18:44:49;15.11;31.58
75683;HTU21D;64295;44.772;39.872;2023-02-26T18:47:16;15.01;31.80
75683;HTU21D;64295;44.772;39.872;2023-02-26T18:49:43;14.95;32.06
75683;HTU21D;64295;44.772;39.872;2023-02-26T18:52:10;14.87;32.43
75683;HTU21D;64295;44.772;39.872;2023-02-26T18:54:37;14.78;32.61